createdAt,value
2022-09-26T00:01:41.725Z,96677.09
2022-09-26T00:04:15.760Z,96676.28
2022-09-26T00:06:44.501Z,96679.09
2022-09-26T00:09:13.649Z,96678.09
2022-09-26T00:11:42.654Z,96674.78
2022-09-26T00:14:29.121Z,96673.94
2022-09-26T00:16:57.845Z,96671.47
2022-09-26T00:19:27.670Z,96668.66
2022-09-26T00:21:56.160Z,96659.03
2022-09-26T00:24:24.518Z,96660.88
2022-09-26T00:26:52.821Z,96658.03
2022-09-26T00:29:21.206Z,96652.41
2022-09-26T00:31:49.800Z,96655.91
2022-09-26T00:34:20.015Z,96655.72
2022-09-26T00:36:51.183Z,96655.56
2022-09-26T00:39:19.741Z,96647.59
2022-09-26T00:41:48.153Z,96649.44
2022-09-26T00:44:47.802Z,96655.72
2022-09-26T00:47:41.398Z,96653.91
2022-09-26T00:50:16.104Z,96643.31
2022-09-26T00:52:47.986Z,96646.13
2022-09-26T00:55:18.772Z,96637.16
2022-09-26T00:57:51.608Z,96637.34
2022-09-26T01:00:20.239Z,96624.91
2022-09-26T01:02:49.518Z,96625.91
2022-09-26T01:05:20.051Z,96627.56
2022-09-26T01:07:50.385Z,96629.38
2022-09-26T01:10:19.085Z,96623.25
2022-09-26T01:12:47.743Z,96625.09
2022-09-26T01:15:16.258Z,96620.13
2022-09-26T01:17:45.790Z,96620.28
2022-09-26T01:20:26.756Z,96613.00
2022-09-26T01:23:35.887Z,96613.31
2022-09-26T01:26:40.104Z,96612.84
2022-09-26T01:29:29.742Z,96610.84
2022-09-26T01:32:22.413Z,96608.53
2022-09-26T01:34:56.682Z,96603.88
2022-09-26T01:37:30.624Z,96610.19
2022-09-26T01:40:06.089Z,96610.19
2022-09-26T01:42:39.625Z,96607.91
2022-09-26T01:45:12.426Z,96610.88
2022-09-26T01:47:43.939Z,96605.88
2022-09-26T01:50:16.500Z,96611.38
2022-09-26T01:52:48.891Z,96608.06
2022-09-26T01:55:19.587Z,96608.91
2022-09-26T01:57:50.703Z,96610.88
2022-09-26T02:00:19.830Z,96614.81
2022-09-26T02:02:50.942Z,96613.00
2022-09-26T02:05:26.293Z,96614.03
2022-09-26T02:07:56.945Z,96613.19
2022-09-26T02:10:28.942Z,96607.91
2022-09-26T02:13:01.258Z,96614.03
2022-09-26T02:15:32.572Z,96610.88
2022-09-26T02:18:08.949Z,96611.56
2022-09-26T02:20:39.691Z,96613.53
2022-09-26T02:23:08.870Z,96608.72
2022-09-26T02:25:37.614Z,96606.59
2022-09-26T02:28:06.064Z,96610.06
2022-09-26T02:30:34.786Z,96610.72
2022-09-26T02:33:04.766Z,96605.41
2022-09-26T02:35:52.582Z,96599.13
2022-09-26T02:38:21.062Z,96605.25
2022-09-26T02:41:02.142Z,96606.25
2022-09-26T02:43:45.424Z,96601.78
2022-09-26T02:46:28.682Z,96598.28
2022-09-26T02:49:09.522Z,96600.78
2022-09-26T02:51:55.515Z,96602.59
2022-09-26T02:54:28.083Z,96599.75
2022-09-26T02:57:08.089Z,96597.31
2022-09-26T02:59:45.210Z,96597.31
2022-09-26T03:02:16.606Z,96591.19
2022-09-26T03:04:55.047Z,96592.16
2022-09-26T03:07:27.961Z,96595.81
2022-09-26T03:09:57.605Z,96591.69
2022-09-26T03:12:26.973Z,96586.38
2022-09-26T03:14:58.663Z,96594.00
2022-09-26T03:17:29.079Z,96598.47
2022-09-26T03:20:02.970Z,96593.34
2022-09-26T03:22:33.532Z,96593.34
2022-09-26T03:25:01.994Z,96592.50
2022-09-26T03:27:33.127Z,96586.38
2022-09-26T03:30:01.732Z,96589.69
2022-09-26T03:32:30.177Z,96589.84
2022-09-26T03:34:59.931Z,96585.38
2022-09-26T03:37:28.396Z,96580.91
2022-09-26T03:39:56.791Z,96582.72
2022-09-26T03:42:38.797Z,96580.09
2022-09-26T03:45:10.385Z,96581.06
2022-09-26T03:47:58.022Z,96575.78
2022-09-26T03:50:28.341Z,96570.00
2022-09-26T03:52:56.883Z,96566.50
2022-09-26T03:55:25.234Z,96571.47
2022-09-26T03:57:53.624Z,96561.69
2022-09-26T04:00:30.054Z,96566.00
2022-09-26T04:03:03.044Z,96566.19
2022-09-26T04:05:41.170Z,96564.34
2022-09-26T04:08:10.164Z,96563.34
2022-09-26T04:10:40.102Z,96573.13
2022-09-26T04:13:09.676Z,96566.19
2022-09-26T04:15:39.155Z,96564.53
2022-09-26T04:18:13.352Z,96554.75
2022-09-26T04:20:44.062Z,96546.78
2022-09-26T04:23:13.547Z,96554.75
2022-09-26T04:25:42.081Z,96553.91
2022-09-26T04:28:10.466Z,96557.41
2022-09-26T04:30:40.097Z,96549.44
2022-09-26T04:33:12.451Z,96553.91
2022-09-26T04:35:53.292Z,96552.09
2022-09-26T04:38:21.748Z,96555.56
2022-09-26T04:40:50.196Z,96553.25
2022-09-26T04:43:18.614Z,96556.56
2022-09-26T04:45:48.248Z,96555.91
2022-09-26T04:48:16.929Z,96546.13
2022-09-26T04:50:45.963Z,96550.63
2022-09-26T04:53:16.211Z,96555.91
2022-09-26T04:55:54.855Z,96546.97
2022-09-26T04:58:23.464Z,96550.63
2022-09-26T05:00:52.487Z,96539.19
2022-09-26T05:03:36.668Z,96541.66
2022-09-26T05:06:07.223Z,96542.66
2022-09-26T05:08:37.487Z,96539.19
2022-09-26T05:11:07.368Z,96546.31
2022-09-26T05:13:37.346Z,96542.84
2022-09-26T05:16:08.818Z,96547.13
2022-09-26T05:18:39.283Z,96543.66
2022-09-26T05:21:08.738Z,96547.31
2022-09-26T05:23:56.251Z,96550.94
2022-09-26T05:26:27.106Z,96557.06
2022-09-26T05:28:56.580Z,96553.59
2022-09-26T05:31:30.163Z,96559.56
2022-09-26T05:33:58.662Z,96557.91
2022-09-26T05:36:27.696Z,96557.06
2022-09-26T05:38:57.792Z,96552.59
2022-09-26T05:41:28.038Z,96551.78
2022-09-26T05:43:56.983Z,96542.00
2022-09-26T05:46:28.394Z,96542.84
2022-09-26T05:49:00.131Z,96537.53
2022-09-26T05:51:29.368Z,96533.22
2022-09-26T05:53:59.216Z,96534.06
2022-09-26T05:56:29.127Z,96532.22
2022-09-26T05:59:09.928Z,96537.38
2022-09-26T06:01:57.565Z,96536.53
2022-09-26T06:04:44.262Z,96538.34
2022-09-26T06:07:40.080Z,96537.53
2022-09-26T06:10:14.048Z,96540.19
2022-09-26T06:12:52.084Z,96540.50
2022-09-26T06:15:20.686Z,96540.34
2022-09-26T06:17:49.297Z,96532.06
2022-09-26T06:20:19.420Z,96528.41
2022-09-26T06:22:48.332Z,96537.19
2022-09-26T06:25:18.319Z,96539.00
2022-09-26T06:27:47.496Z,96527.75
2022-09-26T06:30:17.779Z,96529.59
2022-09-26T06:32:47.352Z,96539.19
2022-09-26T06:35:22.621Z,96530.25
2022-09-26T06:38:09.769Z,96543.31
2022-09-26T06:40:39.679Z,96543.31
2022-09-26T06:43:08.199Z,96542.31
2022-09-26T06:45:56.853Z,96545.81
2022-09-26T06:48:42.995Z,96528.59
2022-09-26T06:51:21.489Z,96526.09
2022-09-26T06:53:49.924Z,96533.72
2022-09-26T06:56:23.555Z,96532.72
2022-09-26T06:58:51.973Z,96531.72
2022-09-26T07:01:24.779Z,96531.72
2022-09-26T07:04:04.750Z,96535.72
2022-09-26T07:06:39.050Z,96538.69
2022-09-26T07:09:12.195Z,96534.72
2022-09-26T07:12:14.310Z,96530.06
2022-09-26T07:14:47.899Z,96531.72
2022-09-26T07:17:23.462Z,96532.38
2022-09-26T07:20:11.440Z,96529.72
2022-09-26T07:22:58.768Z,96527.59
2022-09-26T07:25:27.404Z,96535.53
2022-09-26T07:27:57.666Z,96529.41
2022-09-26T07:30:36.089Z,96526.25
2022-09-26T07:33:11.015Z,96531.41
2022-09-26T07:35:46.555Z,96529.91
2022-09-26T07:38:15.193Z,96535.53
2022-09-26T07:40:44.228Z,96540.00
2022-09-26T07:43:35.618Z,96537.38
2022-09-26T07:46:20.072Z,96527.09
2022-09-26T07:49:09.050Z,96531.22
2022-09-26T07:52:00.910Z,96529.56
2022-09-26T07:54:40.066Z,96522.44
2022-09-26T07:57:27.216Z,96523.44
2022-09-26T08:00:19.551Z,96530.22
2022-09-26T08:03:02.056Z,96525.75
2022-09-26T08:05:32.380Z,96530.03
2022-09-26T08:08:01.451Z,96536.97
2022-09-26T08:10:48.691Z,96530.84
2022-09-26T08:13:36.040Z,96539.28
2022-09-26T08:16:24.433Z,96533.97
2022-09-26T08:18:56.197Z,96531.00
2022-09-26T08:21:26.499Z,96525.53
2022-09-26T08:23:59.873Z,96515.56
2022-09-26T08:26:46.716Z,96516.06
2022-09-26T08:29:21.738Z,96508.94
2022-09-26T08:31:54.856Z,96513.72
2022-09-26T08:34:25.740Z,96519.03
2022-09-26T08:37:31.112Z,96506.75
2022-09-26T08:40:28.127Z,96511.06
2022-09-26T08:43:04.298Z,96512.72
2022-09-26T08:46:32.556Z,96504.13
2022-09-26T08:49:42.373Z,96503.13
2022-09-26T08:52:31.738Z,96500.47
2022-09-26T08:55:03.491Z,96493.34
2022-09-26T08:57:35.758Z,96493.34
2022-09-26T09:00:15.463Z,96492.16
2022-09-26T09:02:49.126Z,96499.94
2022-09-26T09:05:23.339Z,96498.28
2022-09-26T09:07:55.004Z,96499.13
2022-09-26T09:10:35.836Z,96497.13
2022-09-26T09:13:34.117Z,96495.31
2022-09-26T09:16:23.866Z,96488.16
2022-09-26T09:19:08.996Z,96489.81
2022-09-26T09:22:06.039Z,96488.66
2022-09-26T09:25:00.280Z,96478.06
2022-09-26T09:28:00.352Z,96483.34
2022-09-26T09:30:36.725Z,96474.41
2022-09-26T09:33:26.234Z,96467.56
2022-09-26T09:36:17.989Z,96466.06
2022-09-26T09:39:06.355Z,96466.88
2022-09-26T09:41:54.689Z,96464.22
2022-09-26T09:44:31.410Z,96470.72
2022-09-26T09:47:00.499Z,96464.75
2022-09-26T09:49:29.206Z,96470.06
2022-09-26T09:52:08.957Z,96463.94
2022-09-26T09:54:46.182Z,96465.75
2022-09-26T09:57:34.951Z,96464.94
2022-09-26T10:00:11.578Z,96462.28
2022-09-26T10:03:18.989Z,96462.28
2022-09-26T10:05:51.682Z,96459.63
2022-09-26T10:08:31.267Z,96458.63
2022-09-26T10:11:23.378Z,96447.34
2022-09-26T10:14:03.102Z,96451.66
2022-09-26T10:17:15.206Z,96448.00
2022-09-26T10:20:04.225Z,96437.41
2022-09-26T10:22:38.178Z,96437.41
2022-09-26T10:25:09.878Z,96439.38
2022-09-26T10:27:41.081Z,96433.06
2022-09-26T10:30:26.892Z,96431.72
2022-09-26T10:33:00.234Z,96420.22
2022-09-26T10:35:52.854Z,96410.91
2022-09-26T10:38:24.123Z,96410.38
2022-09-26T10:40:59.718Z,96417.81
2022-09-26T10:43:32.851Z,96421.75
2022-09-26T10:46:11.970Z,96408.28
2022-09-26T10:48:51.760Z,96410.44
2022-09-26T10:51:45.446Z,96401.13
2022-09-26T10:54:18.804Z,96404.78
2022-09-26T10:56:50.885Z,96406.59
2022-09-26T10:59:27.269Z,96403.94
2022-09-26T11:01:59.392Z,96405.94
2022-09-26T11:04:47.439Z,96403.41
2022-09-26T11:07:42.817Z,96406.53
2022-09-26T11:10:38.344Z,96399.94
2022-09-26T11:13:22.487Z,96394.34
2022-09-26T11:16:02.377Z,96393.69
2022-09-26T11:18:37.137Z,96396.34
2022-09-26T11:21:27.479Z,96392.84
2022-09-26T11:24:02.970Z,96390.69
2022-09-26T11:26:36.440Z,96391.97
2022-09-26T11:29:13.458Z,96388.59
2022-09-26T11:32:06.481Z,96381.94
2022-09-26T11:34:48.422Z,96372.78
2022-09-26T11:37:54.598Z,96369.22
2022-09-26T11:40:34.693Z,96365.84
2022-09-26T11:43:16.492Z,96364.19
2022-09-26T11:45:59.047Z,96351.75
2022-09-26T11:49:01.992Z,96342.22
2022-09-26T11:52:02.111Z,96339.69
2022-09-26T11:54:46.979Z,96328.22
2022-09-26T11:57:35.524Z,96329.50
2022-09-26T12:00:09.194Z,96322.19
2022-09-26T12:03:05.027Z,96318.06
2022-09-26T12:05:44.206Z,96303.31
2022-09-26T12:08:24.730Z,96315.13
2022-09-26T12:10:57.679Z,96313.50
2022-09-26T12:13:35.203Z,96304.88
2022-09-26T12:16:12.830Z,96300.75
2022-09-26T12:18:49.525Z,96298.09
2022-09-26T12:21:27.398Z,96298.38
2022-09-26T12:23:57.758Z,96284.63
2022-09-26T12:26:34.721Z,96285.56
2022-09-26T12:29:16.250Z,96279.31
2022-09-26T12:31:54.804Z,96272.97
2022-09-26T12:34:48.146Z,96267.59
2022-09-26T12:37:33.581Z,96261.00
2022-09-26T12:40:14.253Z,96257.72
2022-09-26T12:43:05.744Z,96260.38
2022-09-26T12:45:53.556Z,96254.59
2022-09-26T12:48:40.166Z,96244.53
2022-09-26T12:51:19.967Z,96248.19
2022-09-26T12:54:17.662Z,96249.22
2022-09-26T12:56:53.175Z,96249.84
2022-09-26T12:59:52.447Z,96247.72
2022-09-26T13:02:37.582Z,96235.78
2022-09-26T13:05:17.459Z,96227.44
2022-09-26T13:07:54.696Z,96234.66
2022-09-26T13:10:38.380Z,96231.16
2022-09-26T13:13:33.774Z,96225.09
2022-09-26T13:16:13.714Z,96218.34
2022-09-26T13:18:44.788Z,96196.63
2022-09-26T13:21:16.507Z,96209.81
2022-09-26T13:23:53.578Z,96208.34
2022-09-26T13:26:29.053Z,96209.81
2022-09-26T13:29:16.662Z,96203.66
2022-09-26T13:31:48.724Z,96202.31
2022-09-26T13:34:21.501Z,96192.66
2022-09-26T13:36:50.832Z,96195.69
2022-09-26T13:39:26.869Z,96194.88
2022-09-26T13:42:01.360Z,96189.94
2022-09-26T13:44:55.722Z,96192.59
2022-09-26T13:47:31.226Z,96186.63
2022-09-26T13:50:03.442Z,96181.50
2022-09-26T13:52:43.169Z,96181.31
2022-09-26T13:55:14.498Z,96180.69
2022-09-26T13:57:51.351Z,96175.44
2022-09-26T14:00:49.113Z,96175.63
2022-09-26T14:03:41.688Z,96165.22
2022-09-26T14:06:29.389Z,96160.38
2022-09-26T14:09:24.251Z,96147.50
2022-09-26T14:12:19.093Z,96146.13
2022-09-26T14:14:54.114Z,96133.47
2022-09-26T14:18:15.413Z,96137.75
2022-09-26T14:20:55.004Z,96138.38
2022-09-26T14:23:44.888Z,96131.88
2022-09-26T14:26:21.032Z,96137.44
2022-09-26T14:28:54.564Z,96129.25
2022-09-26T14:31:40.180Z,96126.41
2022-09-26T14:34:20.162Z,96122.72
2022-09-26T14:36:49.425Z,96119.06
2022-09-26T14:39:40.481Z,96118.03
2022-09-26T14:42:19.132Z,96120.31
2022-09-26T14:44:52.575Z,96110.31
2022-09-26T14:47:22.629Z,96100.28
2022-09-26T14:49:59.047Z,96101.75
2022-09-26T14:52:27.671Z,96098.03
2022-09-26T14:58:17.229Z,96104.19
2022-09-26T15:00:47.806Z,96110.94
2022-09-26T15:03:18.685Z,96096.63
2022-09-26T15:05:47.914Z,96100.75
2022-09-26T15:08:24.783Z,96093.38
2022-09-26T15:10:54.439Z,96081.75
2022-09-26T15:13:35.308Z,96086.03
2022-09-26T15:16:15.842Z,96088.50
2022-09-26T15:18:48.178Z,96092.63
2022-09-26T15:21:27.055Z,96086.06
2022-09-26T15:23:56.447Z,96093.88
2022-09-26T15:26:26.446Z,96083.84
2022-09-26T15:28:56.493Z,96076.50
2022-09-26T15:31:28.075Z,96080.56
2022-09-26T15:34:16.110Z,96079.94
2022-09-26T15:36:45.521Z,96074.00
2022-09-26T15:39:46.724Z,96072.97
2022-09-26T15:42:46.542Z,96070.94
2022-09-26T15:45:29.775Z,96072.59
2022-09-26T15:47:59.742Z,96070.53
2022-09-26T15:50:33.173Z,96068.88
2022-09-26T15:53:05.216Z,96066.78
2022-09-26T15:55:38.455Z,96068.81
2022-09-26T15:58:07.971Z,96071.88
2022-09-26T16:00:38.237Z,96070.22
2022-09-26T16:03:28.529Z,96064.28
2022-09-26T16:05:58.100Z,96054.06
2022-09-26T16:08:28.656Z,96057.75
2022-09-26T16:10:58.137Z,96058.97
2022-09-26T16:13:28.003Z,96062.63
2022-09-26T16:16:03.355Z,96060.81
2022-09-26T16:18:37.317Z,96052.63
2022-09-26T16:21:18.553Z,96055.91
2022-09-26T16:23:49.259Z,96054.47
2022-09-26T16:26:28.724Z,96057.31
2022-09-26T16:28:57.807Z,96053.00
2022-09-26T16:31:29.531Z,96049.72
2022-09-26T16:33:59.366Z,96055.88
2022-09-26T16:36:30.249Z,96050.75
2022-09-26T16:39:00.604Z,96065.88
2022-09-26T16:42:01.693Z,96060.94
2022-09-26T16:44:33.623Z,96062.78
2022-09-26T16:47:05.466Z,96065.63
2022-09-26T16:49:46.681Z,96059.69
2022-09-26T16:52:34.331Z,96063.19
2022-09-26T16:55:05.933Z,96068.69
2022-09-26T16:57:35.559Z,96056.59
2022-09-26T17:00:24.944Z,96061.91
2022-09-26T17:02:53.214Z,96063.75
2022-09-26T17:05:22.439Z,96059.47
2022-09-26T17:07:52.142Z,96058.00
2022-09-26T17:10:22.168Z,96045.53
2022-09-26T17:12:52.856Z,96050.03
2022-09-26T17:15:26.962Z,96056.38
2022-09-26T17:17:56.827Z,96059.22
2022-09-26T17:20:26.903Z,96056.75
2022-09-26T17:22:56.687Z,96055.09
2022-09-26T17:26:33.622Z,96059.41
2022-09-26T17:29:45.640Z,96050.38
2022-09-26T17:32:16.901Z,96060.81
2022-09-26T17:34:45.488Z,96058.97
2022-09-26T17:37:16.076Z,96050.38
2022-09-26T17:39:48.333Z,96055.06
2022-09-26T17:42:17.141Z,96044.22
2022-09-26T17:44:47.679Z,96054.25
2022-09-26T17:47:16.732Z,96051.56
2022-09-26T17:49:49.368Z,96051.78
2022-09-26T17:52:25.166Z,96058.72
2022-09-26T17:54:57.849Z,96062.41
2022-09-26T17:57:27.808Z,96059.13
2022-09-26T17:59:56.300Z,96060.13
2022-09-26T18:02:27.716Z,96059.50
2022-09-26T18:04:56.855Z,96052.53
2022-09-26T18:07:25.144Z,96056.22
2022-09-26T18:09:55.442Z,96060.50
2022-09-26T18:12:25.425Z,96059.69
2022-09-26T18:15:03.188Z,96061.72
2022-09-26T18:17:32.163Z,96048.63
2022-09-26T18:20:00.478Z,96052.94
2022-09-26T18:22:31.997Z,96051.47
2022-09-26T18:25:05.185Z,96045.34
2022-09-26T18:27:36.675Z,96041.19
2022-09-26T18:30:06.054Z,96046.72
2022-09-26T18:32:36.630Z,96044.88
2022-09-26T18:35:05.230Z,96043.84
2022-09-26T18:37:33.452Z,96045.88
2022-09-26T18:40:04.551Z,96041.59
2022-09-26T18:42:33.074Z,96041.38
2022-09-26T18:45:04.861Z,96042.41
2022-09-26T18:48:04.986Z,96044.25
2022-09-26T18:50:36.549Z,96038.28
2022-09-26T18:53:05.234Z,96044.63
2022-09-26T18:55:52.377Z,96044.63
2022-09-26T18:58:27.704Z,96047.47
2022-09-26T19:00:58.171Z,96049.94
2022-09-26T19:03:28.736Z,96050.13
2022-09-26T19:06:01.704Z,96044.81
2022-09-26T19:08:33.987Z,96052.16
2022-09-26T19:11:11.048Z,96052.97
2022-09-26T19:13:39.615Z,96051.53
2022-09-26T19:16:08.388Z,96047.22
2022-09-26T19:18:36.959Z,96052.53
2022-09-26T19:21:08.442Z,96044.75
2022-09-26T19:23:37.137Z,96043.94
2022-09-26T19:26:07.088Z,96047.59
2022-09-26T19:28:36.653Z,96050.44
2022-09-26T19:31:05.405Z,96040.03
2022-09-26T19:33:33.808Z,96039.19
2022-09-26T19:36:02.474Z,96036.75
2022-09-26T19:38:30.930Z,96038.59
2022-09-26T19:40:59.391Z,96039.63
2022-09-26T19:43:29.195Z,96034.50
2022-09-26T19:45:57.574Z,96033.28
2022-09-26T19:48:25.869Z,96028.16
2022-09-26T19:50:54.269Z,96016.72
2022-09-26T19:53:24.366Z,96001.78
2022-09-26T19:55:55.757Z,96000.16
2022-09-26T19:58:25.587Z,95995.84
2022-09-26T20:00:56.839Z,96002.19
2022-09-26T20:03:28.668Z,95990.53
2022-09-26T20:05:57.334Z,95984.41
2022-09-26T20:08:27.065Z,95983.59
2022-09-26T20:10:56.632Z,95978.47
2022-09-26T20:13:24.964Z,95981.13
2022-09-26T20:15:56.713Z,95967.22
2022-09-26T20:18:25.184Z,95961.09
2022-09-26T20:20:55.271Z,95964.56
2022-09-26T20:23:25.254Z,95955.97
2022-09-26T20:25:54.897Z,95951.84
2022-09-26T20:28:23.539Z,95953.50
2022-09-26T20:30:56.541Z,95943.91
2022-09-26T20:33:27.543Z,95937.75
2022-09-26T20:36:03.186Z,95942.25
2022-09-26T20:38:35.729Z,95932.44
2022-09-26T20:41:12.722Z,95934.47
2022-09-26T20:43:42.788Z,95935.28
2022-09-26T20:46:11.619Z,95932.00
2022-09-26T20:48:43.078Z,95918.53
2022-09-26T20:51:17.940Z,95923.03
2022-09-26T20:53:46.268Z,95921.59
2022-09-26T20:56:20.858Z,95910.97
2022-09-26T20:58:50.055Z,95900.53
2022-09-26T21:01:19.715Z,95895.22
2022-09-26T21:03:51.402Z,95900.72
2022-09-26T21:06:22.079Z,95898.06
2022-09-26T21:08:50.353Z,95886.63
2022-09-26T21:11:20.416Z,95893.78
2022-09-26T21:13:48.759Z,95885.81
2022-09-26T21:16:19.302Z,95876.22
2022-09-26T21:18:51.255Z,95884.16
2022-09-26T21:21:22.541Z,95873.94
2022-09-26T21:24:28.214Z,95872.91
2022-09-26T21:26:56.536Z,95872.09
2022-09-26T21:29:25.264Z,95863.31
2022-09-26T21:31:56.145Z,95856.38
2022-09-26T21:34:27.927Z,95860.84
2022-09-26T21:36:59.412Z,95852.88
2022-09-26T21:39:28.769Z,95844.09
2022-09-26T21:41:59.907Z,95838.16
2022-09-26T21:44:30.497Z,95834.69
2022-09-26T21:46:58.799Z,95831.22
2022-09-26T21:49:28.464Z,95830.41
2022-09-26T21:51:59.872Z,95821.63
2022-09-26T21:54:32.586Z,95823.44
2022-09-26T21:57:04.800Z,95818.97
2022-09-26T21:59:33.161Z,95819.34
2022-09-26T22:02:01.543Z,95815.69
2022-09-26T22:04:31.169Z,95801.78
2022-09-26T22:06:59.428Z,95804.44
2022-09-26T22:09:27.717Z,95793.81
2022-09-26T22:11:55.976Z,95790.34
2022-09-26T22:14:24.230Z,95787.88
2022-09-26T22:16:52.616Z,95769.50
2022-09-26T22:19:21.035Z,95768.88
2022-09-26T22:21:51.078Z,95764.38
2022-09-26T22:24:19.512Z,95771.34
2022-09-26T22:26:47.883Z,95766.03
2022-09-26T22:29:16.629Z,95747.84
2022-09-26T22:31:45.256Z,95746.00
2022-09-26T22:34:14.045Z,95739.25
2022-09-26T22:36:42.303Z,95738.22
2022-09-26T22:39:11.882Z,95728.00
2022-09-26T22:41:40.144Z,95728.00
2022-09-26T22:44:09.187Z,95735.97
2022-09-26T22:46:38.415Z,95730.66
2022-09-26T22:49:06.952Z,95718.41
2022-09-26T22:51:35.199Z,95724.72
2022-09-26T22:54:03.725Z,95715.13
2022-09-26T22:56:33.290Z,95706.53
2022-09-26T22:59:02.907Z,95711.84
2022-09-26T23:01:31.221Z,95708.38
2022-09-26T23:04:00.452Z,95711.03
2022-09-26T23:06:29.444Z,95703.28
2022-09-26T23:08:58.006Z,95694.50
2022-09-26T23:11:27.855Z,95696.31
2022-09-26T23:13:57.414Z,95696.53
2022-09-26T23:16:27.122Z,95697.34
2022-09-26T23:18:55.933Z,95694.50
2022-09-26T23:21:25.950Z,95695.50
2022-09-26T23:23:55.824Z,95697.34
2022-09-26T23:26:25.968Z,95704.28
2022-09-26T23:28:55.473Z,95694.06
2022-09-26T23:31:26.155Z,95688.13
2022-09-26T23:33:55.347Z,95682.00
2022-09-26T23:36:24.250Z,95682.00
2022-09-26T23:38:52.588Z,95681.81
2022-09-26T23:41:20.866Z,95676.91
2022-09-26T23:43:49.481Z,95683.03
2022-09-26T23:46:17.775Z,95673.63
2022-09-26T23:48:47.493Z,95667.69
2022-09-26T23:51:15.740Z,95654.22
2022-09-26T23:53:43.948Z,95655.03
2022-09-26T23:56:14.354Z,95654.41
2022-09-26T23:58:42.655Z,95645.44
